Buckland, Massachusetts
Current Conditions -  °F | °C
As of 8:22 PM on Wednesday 26 Nov 2014 (Local Time) from KAQW Reporting Station
Light Snow Light Snow  
Wind Chill: 22°   Ceiling: 1400
Heat Index: 30°   Visibility: 0.75mi
Dew Point: 29°   Wind: 9mph
Humidity: 96%   Direction: 290°WNW
Pressure: 29.87"   Gusts: NA
Location:  42.59°N, 72.79°W
Report Text: KAQW 270122Z AUTO 29008KT 260V320 3/4SM -SN BR FEW005 OVC014 M01/M02 A2987 RMK AO2 P0001 T10111017 FZRANO $
Loading
Personal Weather Stations






























Interactive Weather Map New forecast layout! Learn more

10-Day Weather Forecast

Advertisements
Track Severe Weather on mobile